Weather at Sainte-Croix Airport [CLOSED]

Public forecast

Using degrees Celsius for public forecast. Weather courtesy of forecast.io.

Closest aviation weather report (METAR) to Sainte-Croix Airport

Closest report is Quebec Jean Lesage International Airport, 18.9 nm (35.0 km) ENE.

2024/07/21 04:00 (retrieved 59 minutes ago)

CYQB 210400Z VRB02KT 15SM SKC 14/12 A2996 RMK SLP149

Closest aviation forecast (TAF) to Sainte-Croix Airport

Forecast is more than 12 hours old.

Closest forecast is C J.H.L.(Joe) Lecomte) Heliport, 20.0 nm (37.1 km) NE.

2024/07/19 18:21 Ammendment (retrieved 1 day ago)

TAF AMD TAF AMD CYOY 191918Z 1918/2006 CNL RMK END OF FLY PROGRAM NXT FCST BY 200000Z